Putney, South Dakota
Current Conditions -  °F | °C
As of 2:53 PM on Sunday 21 Dec 2014 (Local Time) from KABR Reporting Station
Overcast Overcast  
Wind Chill: 24°   Ceiling: 700
Heat Index: 34°   Visibility: 9mi
Dew Point: 30°   Wind: 16mph
Humidity: 85%   Direction: 170°S
Pressure: 29.52"   Gusts: NA
Location:  45.4583°N, 98.1109°W
Report Text: KABR 212053Z AUTO 17014KT 9SM OVC007 01/M01 A2952 RMK AO2 SLP009 I3001 T00111011 56031
Loading
Personal Weather Stations






























Interactive Weather Map New forecast layout! Learn more

10-Day Weather Forecast

Advertisements
Track Severe Weather on mobile